sensor_id;sensor_type;location;lat;lon;timestamp;temperature;humidity
3660;DHT22;1846;51.482;7.224;2023-04-26T00:01:05;5.50;99.90
3660;DHT22;1846;51.482;7.224;2023-04-26T00:03:34;5.60;99.90
3660;DHT22;1846;51.482;7.224;2023-04-26T00:06:00;5.60;99.90
3660;DHT22;1846;51.482;7.224;2023-04-26T00:08:32;5.70;99.90
3660;DHT22;1846;51.482;7.224;2023-04-26T00:10:59;5.70;99.90
3660;DHT22;1846;51.482;7.224;2023-04-26T00:13:28;5.70;99.90
3660;DHT22;1846;51.482;7.224;2023-04-26T00:15:57;5.60;99.90
3660;DHT22;1846;51.482;7.224;2023-04-26T00:18:27;5.60;99.90
3660;DHT22;1846;51.482;7.224;2023-04-26T00:20:55;5.60;99.90
3660;DHT22;1846;51.482;7.224;2023-04-26T00:23:22;5.50;99.90
3660;DHT22;1846;51.482;7.224;2023-04-26T00:25:49;5.40;99.90
3660;DHT22;1846;51.482;7.224;2023-04-26T00:28:19;5.40;1.00
3660;DHT22;1846;51.482;7.224;2023-04-26T00:30:48;5.30;1.00
3660;DHT22;1846;51.482;7.224;2023-04-26T00:33:15;5.30;1.00
3660;DHT22;1846;51.482;7.224;2023-04-26T00:35:42;5.20;1.00
3660;DHT22;1846;51.482;7.224;2023-04-26T00:38:11;5.20;1.00
3660;DHT22;1846;51.482;7.224;2023-04-26T00:40:38;5.20;1.00
3660;DHT22;1846;51.482;7.224;2023-04-26T00:43:06;5.10;1.00
3660;DHT22;1846;51.482;7.224;2023-04-26T00:45:33;5.00;1.00
3660;DHT22;1846;51.482;7.224;2023-04-26T00:48:01;4.90;1.00
3660;DHT22;1846;51.482;7.224;2023-04-26T00:50:31;4.90;1.00
3660;DHT22;1846;51.482;7.224;2023-04-26T00:52:59;4.90;1.00
3660;DHT22;1846;51.482;7.224;2023-04-26T00:55:29;4.80;1.00
3660;DHT22;1846;51.482;7.224;2023-04-26T00:57:56;4.80;1.00
3660;DHT22;1846;51.482;7.224;2023-04-26T01:00:24;4.80;1.00
3660;DHT22;1846;51.482;7.224;2023-04-26T01:02:52;4.80;1.00
3660;DHT22;1846;51.482;7.224;2023-04-26T01:05:19;4.70;1.00
3660;DHT22;1846;51.482;7.224;2023-04-26T01:07:46;4.60;99.90
3660;DHT22;1846;51.482;7.224;2023-04-26T01:10:13;4.50;99.90
3660;DHT22;1846;51.482;7.224;2023-04-26T01:12:42;4.40;99.90
3660;DHT22;1846;51.482;7.224;2023-04-26T01:15:10;4.40;99.90
3660;DHT22;1846;51.482;7.224;2023-04-26T01:17:39;4.40;99.90
3660;DHT22;1846;51.482;7.224;2023-04-26T01:20:07;4.30;99.90
3660;DHT22;1846;51.482;7.224;2023-04-26T01:22:36;4.30;99.90
3660;DHT22;1846;51.482;7.224;2023-04-26T01:25:06;4.30;1.00
3660;DHT22;1846;51.482;7.224;2023-04-26T01:27:33;4.20;1.00
3660;DHT22;1846;51.482;7.224;2023-04-26T01:30:01;4.30;1.00
3660;DHT22;1846;51.482;7.224;2023-04-26T01:32:28;4.30;1.00
3660;DHT22;1846;51.482;7.224;2023-04-26T01:34:55;4.20;1.00
3660;DHT22;1846;51.482;7.224;2023-04-26T01:37:22;4.20;1.00
3660;DHT22;1846;51.482;7.224;2023-04-26T01:39:51;4.20;1.00
3660;DHT22;1846;51.482;7.224;2023-04-26T01:42:18;4.20;1.00
3660;DHT22;1846;51.482;7.224;2023-04-26T01:44:45;4.20;1.00
3660;DHT22;1846;51.482;7.224;2023-04-26T01:47:11;4.20;1.00
3660;DHT22;1846;51.482;7.224;2023-04-26T01:49:38;4.20;1.00
3660;DHT22;1846;51.482;7.224;2023-04-26T01:52:06;4.20;1.00
3660;DHT22;1846;51.482;7.224;2023-04-26T01:54:32;4.30;1.00
3660;DHT22;1846;51.482;7.224;2023-04-26T01:57:01;4.20;1.00
3660;DHT22;1846;51.482;7.224;2023-04-26T01:59:28;4.10;1.00
3660;DHT22;1846;51.482;7.224;2023-04-26T02:01:55;4.10;1.00
3660;DHT22;1846;51.482;7.224;2023-04-26T02:04:21;4.00;1.00
3660;DHT22;1846;51.482;7.224;2023-04-26T02:06:52;4.00;92.20
3660;DHT22;1846;51.482;7.224;2023-04-26T02:09:18;3.90;99.90
3660;DHT22;1846;51.482;7.224;2023-04-26T02:11:45;3.90;99.90
3660;DHT22;1846;51.482;7.224;2023-04-26T02:14:14;3.90;1.00
3660;DHT22;1846;51.482;7.224;2023-04-26T02:16:41;4.00;99.90
3660;DHT22;1846;51.482;7.224;2023-04-26T02:19:08;4.00;61.00
3660;DHT22;1846;51.482;7.224;2023-04-26T02:21:51;4.00;99.90
3660;DHT22;1846;51.482;7.224;2023-04-26T02:24:18;4.00;99.90
3660;DHT22;1846;51.482;7.224;2023-04-26T02:26:47;4.00;99.90
3660;DHT22;1846;51.482;7.224;2023-04-26T02:29:18;4.00;19.30
3660;DHT22;1846;51.482;7.224;2023-04-26T02:31:47;4.00;1.00
3660;DHT22;1846;51.482;7.224;2023-04-26T02:34:14;4.00;1.00
3660;DHT22;1846;51.482;7.224;2023-04-26T02:36:44;4.00;1.00
3660;DHT22;1846;51.482;7.224;2023-04-26T02:39:11;4.00;1.00
3660;DHT22;1846;51.482;7.224;2023-04-26T02:41:38;4.00;57.80
3660;DHT22;1846;51.482;7.224;2023-04-26T02:44:05;4.00;99.90
3660;DHT22;1846;51.482;7.224;2023-04-26T02:46:34;4.00;99.90
3660;DHT22;1846;51.482;7.224;2023-04-26T02:49:01;4.00;99.90
3660;DHT22;1846;51.482;7.224;2023-04-26T02:51:32;4.10;1.00
3660;DHT22;1846;51.482;7.224;2023-04-26T02:54:01;4.10;1.00
3660;DHT22;1846;51.482;7.224;2023-04-26T02:56:28;4.10;1.00
3660;DHT22;1846;51.482;7.224;2023-04-26T02:58:56;4.00;1.00
3660;DHT22;1846;51.482;7.224;2023-04-26T03:01:22;4.00;1.00
3660;DHT22;1846;51.482;7.224;2023-04-26T03:03:51;4.00;99.90
3660;DHT22;1846;51.482;7.224;2023-04-26T03:06:18;4.00;99.90
3660;DHT22;1846;51.482;7.224;2023-04-26T03:08:44;4.00;99.90
3660;DHT22;1846;51.482;7.224;2023-04-26T03:11:11;4.00;99.90
3660;DHT22;1846;51.482;7.224;2023-04-26T03:13:39;4.00;99.90
3660;DHT22;1846;51.482;7.224;2023-04-26T03:16:08;4.00;99.90
3660;DHT22;1846;51.482;7.224;2023-04-26T03:18:35;3.90;99.90
3660;DHT22;1846;51.482;7.224;2023-04-26T03:21:04;3.80;99.90
3660;DHT22;1846;51.482;7.224;2023-04-26T03:23:31;3.80;99.90
3660;DHT22;1846;51.482;7.224;2023-04-26T03:25:57;3.80;1.00
3660;DHT22;1846;51.482;7.224;2023-04-26T03:28:24;3.80;99.90
3660;DHT22;1846;51.482;7.224;2023-04-26T03:30:51;3.80;99.90
3660;DHT22;1846;51.482;7.224;2023-04-26T03:33:26;3.70;99.90
3660;DHT22;1846;51.482;7.224;2023-04-26T03:35:53;3.70;99.90
3660;DHT22;1846;51.482;7.224;2023-04-26T03:38:21;3.70;1.00
3660;DHT22;1846;51.482;7.224;2023-04-26T03:40:49;3.70;1.00
3660;DHT22;1846;51.482;7.224;2023-04-26T03:43:18;3.60;99.90
3660;DHT22;1846;51.482;7.224;2023-04-26T03:45:49;3.50;99.90
3660;DHT22;1846;51.482;7.224;2023-04-26T03:48:15;3.60;1.00
3660;DHT22;1846;51.482;7.224;2023-04-26T03:50:45;3.60;1.00
3660;DHT22;1846;51.482;7.224;2023-04-26T03:53:18;3.70;1.00
3660;DHT22;1846;51.482;7.224;2023-04-26T03:55:46;3.70;1.00
3660;DHT22;1846;51.482;7.224;2023-04-26T03:58:13;3.70;99.90
3660;DHT22;1846;51.482;7.224;2023-04-26T04:00:40;3.70;99.90
3660;DHT22;1846;51.482;7.224;2023-04-26T04:03:08;3.60;99.90
3660;DHT22;1846;51.482;7.224;2023-04-26T04:05:35;3.60;1.00
3660;DHT22;1846;51.482;7.224;2023-04-26T04:08:07;3.60;99.90
3660;DHT22;1846;51.482;7.224;2023-04-26T04:10:37;3.70;99.90
3660;DHT22;1846;51.482;7.224;2023-04-26T04:13:05;3.70;99.90
3660;DHT22;1846;51.482;7.224;2023-04-26T04:15:32;3.70;1.00
3660;DHT22;1846;51.482;7.224;2023-04-26T04:18:02;3.70;1.00
3660;DHT22;1846;51.482;7.224;2023-04-26T04:20:32;3.60;99.90
3660;DHT22;1846;51.482;7.224;2023-04-26T04:23:03;3.60;1.00
3660;DHT22;1846;51.482;7.224;2023-04-26T04:25:38;3.60;1.00
3660;DHT22;1846;51.482;7.224;2023-04-26T04:28:09;3.60;99.90
3660;DHT22;1846;51.482;7.224;2023-04-26T04:30:40;3.60;99.90
3660;DHT22;1846;51.482;7.224;2023-04-26T04:33:08;3.60;99.90
3660;DHT22;1846;51.482;7.224;2023-04-26T04:35:35;3.60;1.00
3660;DHT22;1846;51.482;7.224;2023-04-26T04:38:02;3.70;92.20
3660;DHT22;1846;51.482;7.224;2023-04-26T04:40:34;3.70;99.90
3660;DHT22;1846;51.482;7.224;2023-04-26T04:43:04;3.80;1.00
3660;DHT22;1846;51.482;7.224;2023-04-26T04:45:32;3.80;31.10
3660;DHT22;1846;51.482;7.224;2023-04-26T04:48:00;3.80;1.00
3660;DHT22;1846;51.482;7.224;2023-04-26T04:50:29;3.80;1.00
3660;DHT22;1846;51.482;7.224;2023-04-26T04:52:56;3.90;99.90
3660;DHT22;1846;51.482;7.224;2023-04-26T04:55:23;4.00;26.40
3660;DHT22;1846;51.482;7.224;2023-04-26T04:57:50;4.20;99.90
3660;DHT22;1846;51.482;7.224;2023-04-26T05:00:17;4.40;1.00
3660;DHT22;1846;51.482;7.224;2023-04-26T05:02:46;4.50;99.90
3660;DHT22;1846;51.482;7.224;2023-04-26T05:05:20;4.50;14.80
3660;DHT22;1846;51.482;7.224;2023-04-26T05:07:47;4.70;1.00
3660;DHT22;1846;51.482;7.224;2023-04-26T05:10:20;4.70;99.90
3660;DHT22;1846;51.482;7.224;2023-04-26T05:15:39;4.80;99.90
3660;DHT22;1846;51.482;7.224;2023-04-26T05:18:15;4.80;99.90
3660;DHT22;1846;51.482;7.224;2023-04-26T05:23:51;4.80;99.90
3660;DHT22;1846;51.482;7.224;2023-04-26T05:28:55;4.90;99.90
3660;DHT22;1846;51.482;7.224;2023-04-26T05:36:58;5.00;99.90
3660;DHT22;1846;51.482;7.224;2023-04-26T05:39:25;5.00;99.90
3660;DHT22;1846;51.482;7.224;2023-04-26T05:44:30;5.00;99.90
3660;DHT22;1846;51.482;7.224;2023-04-26T05:46:57;5.00;99.90
3660;DHT22;1846;51.482;7.224;2023-04-26T05:49:24;5.10;99.90
3660;DHT22;1846;51.482;7.224;2023-04-26T05:51:52;5.10;99.90
3660;DHT22;1846;51.482;7.224;2023-04-26T05:54:20;5.20;99.90
3660;DHT22;1846;51.482;7.224;2023-04-26T05:56:47;5.30;99.90
3660;DHT22;1846;51.482;7.224;2023-04-26T05:59:14;5.20;1.00
3660;DHT22;1846;51.482;7.224;2023-04-26T06:01:41;5.30;84.40
3660;DHT22;1846;51.482;7.224;2023-04-26T06:04:07;5.30;10.80
3660;DHT22;1846;51.482;7.224;2023-04-26T06:06:34;5.40;1.00
3660;DHT22;1846;51.482;7.224;2023-04-26T06:09:01;5.40;86.30
3660;DHT22;1846;51.482;7.224;2023-04-26T06:11:30;5.40;59.30
3660;DHT22;1846;51.482;7.224;2023-04-26T06:13:57;5.50;50.50
3660;DHT22;1846;51.482;7.224;2023-04-26T06:19:46;5.60;1.00
3660;DHT22;1846;51.482;7.224;2023-04-26T06:22:38;5.60;1.00
3660;DHT22;1846;51.482;7.224;2023-04-26T06:25:48;5.60;1.00
3660;DHT22;1846;51.482;7.224;2023-04-26T06:28:23;5.70;1.00
3660;DHT22;1846;51.482;7.224;2023-04-26T06:31:25;5.80;1.00
3660;DHT22;1846;51.482;7.224;2023-04-26T06:33:54;5.80;1.00
3660;DHT22;1846;51.482;7.224;2023-04-26T06:45:28;6.40;1.00
3660;DHT22;1846;51.482;7.224;2023-04-26T06:50:57;6.50;99.90
3660;DHT22;1846;51.482;7.224;2023-04-26T06:56:26;6.80;99.90
3660;DHT22;1846;51.482;7.224;2023-04-26T07:07:41;7.10;99.90
3660;DHT22;1846;51.482;7.224;2023-04-26T07:15:29;7.40;99.90
3660;DHT22;1846;51.482;7.224;2023-04-26T07:17:59;7.60;99.90
3660;DHT22;1846;51.482;7.224;2023-04-26T07:23:45;7.60;99.90
3660;DHT22;1846;51.482;7.224;2023-04-26T07:26:34;7.60;99.90
3660;DHT22;1846;51.482;7.224;2023-04-26T07:29:01;7.60;99.90
3660;DHT22;1846;51.482;7.224;2023-04-26T07:31:29;7.60;99.90
3660;DHT22;1846;51.482;7.224;2023-04-26T07:33:59;7.70;99.90
3660;DHT22;1846;51.482;7.224;2023-04-26T07:36:26;7.70;99.90
3660;DHT22;1846;51.482;7.224;2023-04-26T07:38:55;7.80;99.90
3660;DHT22;1846;51.482;7.224;2023-04-26T07:41:22;7.80;99.90
3660;DHT22;1846;51.482;7.224;2023-04-26T07:43:49;7.90;99.90
3660;DHT22;1846;51.482;7.224;2023-04-26T07:46:15;8.20;99.90
3660;DHT22;1846;51.482;7.224;2023-04-26T07:48:42;8.30;99.90
3660;DHT22;1846;51.482;7.224;2023-04-26T07:51:16;8.40;99.90
3660;DHT22;1846;51.482;7.224;2023-04-26T07:53:45;8.50;99.90
3660;DHT22;1846;51.482;7.224;2023-04-26T07:56:24;8.70;99.90
3660;DHT22;1846;51.482;7.224;2023-04-26T07:58:54;8.60;93.50
3660;DHT22;1846;51.482;7.224;2023-04-26T08:04:13;8.60;99.90
3660;DHT22;1846;51.482;7.224;2023-04-26T08:06:49;8.60;99.90
3660;DHT22;1846;51.482;7.224;2023-04-26T08:09:20;8.70;99.00
3660;DHT22;1846;51.482;7.224;2023-04-26T08:11:51;8.60;97.20
3660;DHT22;1846;51.482;7.224;2023-04-26T08:14:21;8.70;97.30
3660;DHT22;1846;51.482;7.224;2023-04-26T08:16:59;8.80;93.80
3660;DHT22;1846;51.482;7.224;2023-04-26T08:19:28;8.90;83.60
3660;DHT22;1846;51.482;7.224;2023-04-26T08:21:57;9.00;59.00
3660;DHT22;1846;51.482;7.224;2023-04-26T08:24:24;9.20;57.10
3660;DHT22;1846;51.482;7.224;2023-04-26T08:26:55;9.30;55.10
3660;DHT22;1846;51.482;7.224;2023-04-26T08:29:24;9.10;45.10
3660;DHT22;1846;51.482;7.224;2023-04-26T08:34:30;8.80;42.90
3660;DHT22;1846;51.482;7.224;2023-04-26T08:36:59;8.80;44.30
3660;DHT22;1846;51.482;7.224;2023-04-26T08:44:41;8.70;45.70
3660;DHT22;1846;51.482;7.224;2023-04-26T08:51:11;8.90;47.90
3660;DHT22;1846;51.482;7.224;2023-04-26T08:59:53;9.10;45.70
3660;DHT22;1846;51.482;7.224;2023-04-26T09:02:24;9.00;44.90
3660;DHT22;1846;51.482;7.224;2023-04-26T09:04:51;9.00;45.10
3660;DHT22;1846;51.482;7.224;2023-04-26T09:11:00;9.30;44.80
3660;DHT22;1846;51.482;7.224;2023-04-26T09:30:43;10.00;32.00
3660;DHT22;1846;51.482;7.224;2023-04-26T09:36:12;9.90;29.50
3660;DHT22;1846;51.482;7.224;2023-04-26T09:42:40;9.60;28.70
3660;DHT22;1846;51.482;7.224;2023-04-26T09:45:18;9.50;30.40
3660;DHT22;1846;51.482;7.224;2023-04-26T09:47:54;9.50;30.20
3660;DHT22;1846;51.482;7.224;2023-04-26T09:53:27;9.50;30.00
3660;DHT22;1846;51.482;7.224;2023-04-26T10:01:44;8.90;44.70
3660;DHT22;1846;51.482;7.224;2023-04-26T10:04:12;9.00;46.90
3660;DHT22;1846;51.482;7.224;2023-04-26T10:06:59;9.20;46.20
3660;DHT22;1846;51.482;7.224;2023-04-26T10:13:19;10.10;48.40
3660;DHT22;1846;51.482;7.224;2023-04-26T10:15:50;10.70;37.20
3660;DHT22;1846;51.482;7.224;2023-04-26T10:22:04;10.80;33.40
3660;DHT22;1846;51.482;7.224;2023-04-26T10:32:20;11.50;29.60
3660;DHT22;1846;51.482;7.224;2023-04-26T10:35:08;11.10;27.20
3660;DHT22;1846;51.482;7.224;2023-04-26T10:37:36;11.00;25.10
3660;DHT22;1846;51.482;7.224;2023-04-26T10:40:30;10.80;24.40
3660;DHT22;1846;51.482;7.224;2023-04-26T10:43:27;10.70;24.20
3660;DHT22;1846;51.482;7.224;2023-04-26T10:49:48;10.70;26.20
3660;DHT22;1846;51.482;7.224;2023-04-26T10:59:24;10.10;23.50
3660;DHT22;1846;51.482;7.224;2023-04-26T11:01:53;10.20;23.90
3660;DHT22;1846;51.482;7.224;2023-04-26T11:04:20;10.20;25.80
3660;DHT22;1846;51.482;7.224;2023-04-26T11:11:52;10.30;19.80
3660;DHT22;1846;51.482;7.224;2023-04-26T11:14:21;10.40;20.90
3660;DHT22;1846;51.482;7.224;2023-04-26T11:16:48;10.40;22.40
3660;DHT22;1846;51.482;7.224;2023-04-26T11:19:15;10.40;28.00
3660;DHT22;1846;51.482;7.224;2023-04-26T11:21:41;10.30;21.50
3660;DHT22;1846;51.482;7.224;2023-04-26T11:24:08;10.60;24.20
3660;DHT22;1846;51.482;7.224;2023-04-26T11:26:35;11.30;29.70
3660;DHT22;1846;51.482;7.224;2023-04-26T11:29:06;12.30;29.80
3660;DHT22;1846;51.482;7.224;2023-04-26T11:31:34;13.10;27.70
3660;DHT22;1846;51.482;7.224;2023-04-26T11:34:03;13.20;25.00
3660;DHT22;1846;51.482;7.224;2023-04-26T11:36:30;13.20;23.40
3660;DHT22;1846;51.482;7.224;2023-04-26T11:38:57;13.20;22.20
3660;DHT22;1846;51.482;7.224;2023-04-26T11:41:24;12.80;21.20
3660;DHT22;1846;51.482;7.224;2023-04-26T11:43:51;12.60;20.80
3660;DHT22;1846;51.482;7.224;2023-04-26T11:46:19;12.20;18.60
3660;DHT22;1846;51.482;7.224;2023-04-26T11:48:47;12.00;18.60
3660;DHT22;1846;51.482;7.224;2023-04-26T11:51:14;11.90;17.40
3660;DHT22;1846;51.482;7.224;2023-04-26T11:53:41;11.60;16.50
3660;DHT22;1846;51.482;7.224;2023-04-26T11:56:15;11.60;25.60
3660;DHT22;1846;51.482;7.224;2023-04-26T11:58:44;11.50;18.30
3660;DHT22;1846;51.482;7.224;2023-04-26T12:01:11;11.30;16.20
3660;DHT22;1846;51.482;7.224;2023-04-26T12:03:49;11.20;16.20
3660;DHT22;1846;51.482;7.224;2023-04-26T12:06:16;11.10;16.90
3660;DHT22;1846;51.482;7.224;2023-04-26T12:08:48;11.20;16.40
3660;DHT22;1846;51.482;7.224;2023-04-26T12:11:16;11.00;15.10
3660;DHT22;1846;51.482;7.224;2023-04-26T12:13:45;11.20;16.10
3660;DHT22;1846;51.482;7.224;2023-04-26T12:16:12;11.40;18.80
3660;DHT22;1846;51.482;7.224;2023-04-26T12:18:40;11.70;18.50
3660;DHT22;1846;51.482;7.224;2023-04-26T12:21:09;12.00;17.90
3660;DHT22;1846;51.482;7.224;2023-04-26T12:23:38;12.00;18.90
3660;DHT22;1846;51.482;7.224;2023-04-26T12:26:05;12.10;19.10
3660;DHT22;1846;51.482;7.224;2023-04-26T12:28:35;12.20;19.10
3660;DHT22;1846;51.482;7.224;2023-04-26T12:31:02;12.30;19.00
3660;DHT22;1846;51.482;7.224;2023-04-26T12:36:06;12.30;18.40
3660;DHT22;1846;51.482;7.224;2023-04-26T12:38:34;12.60;18.80
3660;DHT22;1846;51.482;7.224;2023-04-26T12:41:01;12.70;18.70
3660;DHT22;1846;51.482;7.224;2023-04-26T12:43:28;12.70;18.60
3660;DHT22;1846;51.482;7.224;2023-04-26T12:45:55;12.50;17.50
3660;DHT22;1846;51.482;7.224;2023-04-26T12:48:22;12.40;15.50
3660;DHT22;1846;51.482;7.224;2023-04-26T12:50:49;12.20;14.80
3660;DHT22;1846;51.482;7.224;2023-04-26T12:53:17;11.90;12.80
3660;DHT22;1846;51.482;7.224;2023-04-26T12:55:45;11.80;12.80
3660;DHT22;1846;51.482;7.224;2023-04-26T12:58:12;12.00;13.90
3660;DHT22;1846;51.482;7.224;2023-04-26T13:00:39;12.20;16.50
3660;DHT22;1846;51.482;7.224;2023-04-26T13:03:06;12.60;16.70
3660;DHT22;1846;51.482;7.224;2023-04-26T13:05:33;12.70;16.60
3660;DHT22;1846;51.482;7.224;2023-04-26T13:08:00;12.90;17.20
3660;DHT22;1846;51.482;7.224;2023-04-26T13:10:27;12.80;17.00
3660;DHT22;1846;51.482;7.224;2023-04-26T13:12:56;12.70;16.40
3660;DHT22;1846;51.482;7.224;2023-04-26T13:15:23;12.70;15.10
3660;DHT22;1846;51.482;7.224;2023-04-26T13:17:51;12.60;13.70
3660;DHT22;1846;51.482;7.224;2023-04-26T13:20:18;12.30;10.90
3660;DHT22;1846;51.482;7.224;2023-04-26T13:22:45;12.20;9.50
3660;DHT22;1846;51.482;7.224;2023-04-26T13:25:12;12.30;11.20
3660;DHT22;1846;51.482;7.224;2023-04-26T13:27:40;12.30;11.40
3660;DHT22;1846;51.482;7.224;2023-04-26T13:30:09;12.20;11.30
3660;DHT22;1846;51.482;7.224;2023-04-26T13:32:36;12.30;11.20
3660;DHT22;1846;51.482;7.224;2023-04-26T13:35:04;12.30;12.60
3660;DHT22;1846;51.482;7.224;2023-04-26T13:37:31;12.20;11.30
3660;DHT22;1846;51.482;7.224;2023-04-26T13:39:58;11.90;12.20
3660;DHT22;1846;51.482;7.224;2023-04-26T13:42:26;12.00;12.00
3660;DHT22;1846;51.482;7.224;2023-04-26T13:44:53;12.20;12.20
3660;DHT22;1846;51.482;7.224;2023-04-26T13:47:21;12.20;11.70
3660;DHT22;1846;51.482;7.224;2023-04-26T13:49:48;12.40;14.90
3660;DHT22;1846;51.482;7.224;2023-04-26T13:52:15;12.90;15.70
3660;DHT22;1846;51.482;7.224;2023-04-26T13:54:42;13.40;18.80
3660;DHT22;1846;51.482;7.224;2023-04-26T13:57:09;14.00;21.10
3660;DHT22;1846;51.482;7.224;2023-04-26T13:59:36;14.20;21.00
3660;DHT22;1846;51.482;7.224;2023-04-26T14:02:05;13.90;17.70
3660;DHT22;1846;51.482;7.224;2023-04-26T14:04:33;13.40;15.00
3660;DHT22;1846;51.482;7.224;2023-04-26T14:07:00;13.20;15.00
3660;DHT22;1846;51.482;7.224;2023-04-26T14:09:27;12.90;13.50
3660;DHT22;1846;51.482;7.224;2023-04-26T14:11:54;12.90;12.90
3660;DHT22;1846;51.482;7.224;2023-04-26T14:14:21;12.70;12.90
3660;DHT22;1846;51.482;7.224;2023-04-26T14:16:48;12.80;12.90
3660;DHT22;1846;51.482;7.224;2023-04-26T14:19:15;12.60;11.10
3660;DHT22;1846;51.482;7.224;2023-04-26T14:21:44;12.40;8.50
3660;DHT22;1846;51.482;7.224;2023-04-26T14:24:12;12.20;8.40
3660;DHT22;1846;51.482;7.224;2023-04-26T14:26:39;12.10;7.70
3660;DHT22;1846;51.482;7.224;2023-04-26T14:29:07;12.20;8.00
3660;DHT22;1846;51.482;7.224;2023-04-26T14:31:33;12.00;8.10
3660;DHT22;1846;51.482;7.224;2023-04-26T14:34:01;12.00;8.60
3660;DHT22;1846;51.482;7.224;2023-04-26T14:36:27;11.90;9.00
3660;DHT22;1846;51.482;7.224;2023-04-26T14:38:59;12.10;10.30
3660;DHT22;1846;51.482;7.224;2023-04-26T14:41:28;12.40;12.40
3660;DHT22;1846;51.482;7.224;2023-04-26T14:43:55;12.70;12.90
3660;DHT22;1846;51.482;7.224;2023-04-26T14:46:22;12.80;12.90
3660;DHT22;1846;51.482;7.224;2023-04-26T14:48:49;13.00;13.30
3660;DHT22;1846;51.482;7.224;2023-04-26T14:51:16;13.00;13.20
3660;DHT22;1846;51.482;7.224;2023-04-26T14:54:17;13.10;13.30
3660;DHT22;1846;51.482;7.224;2023-04-26T14:56:44;13.30;14.40
3660;DHT22;1846;51.482;7.224;2023-04-26T14:59:12;13.30;13.50
3660;DHT22;1846;51.482;7.224;2023-04-26T15:01:41;13.30;13.60
3660;DHT22;1846;51.482;7.224;2023-04-26T15:07:16;12.70;11.70
3660;DHT22;1846;51.482;7.224;2023-04-26T15:16:01;12.80;12.00
3660;DHT22;1846;51.482;7.224;2023-04-26T15:18:28;12.90;12.00
3660;DHT22;1846;51.482;7.224;2023-04-26T15:20:55;12.70;11.60
3660;DHT22;1846;51.482;7.224;2023-04-26T15:26:09;12.40;10.10
3660;DHT22;1846;51.482;7.224;2023-04-26T15:34:25;12.00;8.80
3660;DHT22;1846;51.482;7.224;2023-04-26T15:36:57;12.10;9.90
3660;DHT22;1846;51.482;7.224;2023-04-26T15:39:24;12.20;10.10
3660;DHT22;1846;51.482;7.224;2023-04-26T15:41:51;12.20;10.20
3660;DHT22;1846;51.482;7.224;2023-04-26T15:52:49;12.60;11.00
3660;DHT22;1846;51.482;7.224;2023-04-26T15:55:16;12.70;11.30
3660;DHT22;1846;51.482;7.224;2023-04-26T16:02:53;12.90;11.10
3660;DHT22;1846;51.482;7.224;2023-04-26T16:05:20;12.70;10.80
3660;DHT22;1846;51.482;7.224;2023-04-26T16:07:48;12.60;10.70
3660;DHT22;1846;51.482;7.224;2023-04-26T16:10:15;12.60;10.70
3660;DHT22;1846;51.482;7.224;2023-04-26T16:12:42;12.70;11.10
3660;DHT22;1846;51.482;7.224;2023-04-26T16:15:09;12.60;10.40
3660;DHT22;1846;51.482;7.224;2023-04-26T16:17:36;12.50;16.30
3660;DHT22;1846;51.482;7.224;2023-04-26T16:20:04;12.30;7.50
3660;DHT22;1846;51.482;7.224;2023-04-26T16:22:33;12.00;6.50
3660;DHT22;1846;51.482;7.224;2023-04-26T16:25:02;11.90;6.50
3660;DHT22;1846;51.482;7.224;2023-04-26T16:27:31;11.90;7.10
3660;DHT22;1846;51.482;7.224;2023-04-26T16:30:01;11.90;7.60
3660;DHT22;1846;51.482;7.224;2023-04-26T16:32:28;11.90;8.80
3660;DHT22;1846;51.482;7.224;2023-04-26T16:34:58;12.10;8.70
3660;DHT22;1846;51.482;7.224;2023-04-26T16:37:25;12.10;7.60
3660;DHT22;1846;51.482;7.224;2023-04-26T16:39:53;12.10;7.60
3660;DHT22;1846;51.482;7.224;2023-04-26T16:42:23;12.00;6.70
3660;DHT22;1846;51.482;7.224;2023-04-26T16:44:51;11.90;6.50
3660;DHT22;1846;51.482;7.224;2023-04-26T16:49:56;11.70;5.80
3660;DHT22;1846;51.482;7.224;2023-04-26T16:52:23;11.70;5.60
3660;DHT22;1846;51.482;7.224;2023-04-26T16:54:56;11.70;5.80
3660;DHT22;1846;51.482;7.224;2023-04-26T16:57:27;11.70;5.10
3660;DHT22;1846;51.482;7.224;2023-04-26T16:59:54;11.70;4.90
3660;DHT22;1846;51.482;7.224;2023-04-26T17:05:00;11.80;5.10
3660;DHT22;1846;51.482;7.224;2023-04-26T17:07:27;11.70;4.90
3660;DHT22;1846;51.482;7.224;2023-04-26T17:12:27;11.60;6.10
3660;DHT22;1846;51.482;7.224;2023-04-26T17:14:55;11.50;4.70
3660;DHT22;1846;51.482;7.224;2023-04-26T17:17:22;11.40;5.00
3660;DHT22;1846;51.482;7.224;2023-04-26T17:19:49;11.30;3.50
3660;DHT22;1846;51.482;7.224;2023-04-26T17:24:59;11.00;3.00
3660;DHT22;1846;51.482;7.224;2023-04-26T17:27:30;11.00;4.20
3660;DHT22;1846;51.482;7.224;2023-04-26T17:29:57;11.20;4.40
3660;DHT22;1846;51.482;7.224;2023-04-26T17:32:24;11.30;4.60
3660;DHT22;1846;51.482;7.224;2023-04-26T17:34:51;11.30;3.70
3660;DHT22;1846;51.482;7.224;2023-04-26T17:37:20;11.20;3.20
3660;DHT22;1846;51.482;7.224;2023-04-26T17:50:16;10.80;2.00
3660;DHT22;1846;51.482;7.224;2023-04-26T17:52:45;10.80;2.80
3660;DHT22;1846;51.482;7.224;2023-04-26T17:55:12;10.80;2.10
3660;DHT22;1846;51.482;7.224;2023-04-26T17:57:41;10.90;1.90
3660;DHT22;1846;51.482;7.224;2023-04-26T18:00:09;10.80;1.70
3660;DHT22;1846;51.482;7.224;2023-04-26T18:05:26;10.70;1.80
3660;DHT22;1846;51.482;7.224;2023-04-26T18:07:53;10.70;2.20
3660;DHT22;1846;51.482;7.224;2023-04-26T18:10:20;10.70;1.70
3660;DHT22;1846;51.482;7.224;2023-04-26T18:12:49;10.60;2.10
3660;DHT22;1846;51.482;7.224;2023-04-26T18:15:17;10.70;2.40
3660;DHT22;1846;51.482;7.224;2023-04-26T18:17:46;10.60;2.00
3660;DHT22;1846;51.482;7.224;2023-04-26T18:20:13;10.40;1.00
3660;DHT22;1846;51.482;7.224;2023-04-26T18:22:41;10.30;8.20
3660;DHT22;1846;51.482;7.224;2023-04-26T18:27:45;10.30;1.10
3660;DHT22;1846;51.482;7.224;2023-04-26T18:32:50;10.30;1.80
3660;DHT22;1846;51.482;7.224;2023-04-26T18:35:17;10.30;1.70
3660;DHT22;1846;51.482;7.224;2023-04-26T18:37:45;10.20;2.60
3660;DHT22;1846;51.482;7.224;2023-04-26T18:40:12;10.10;2.40
3660;DHT22;1846;51.482;7.224;2023-04-26T18:42:39;10.10;4.00
3660;DHT22;1846;51.482;7.224;2023-04-26T18:45:07;10.10;4.30
3660;DHT22;1846;51.482;7.224;2023-04-26T18:47:35;10.10;4.50
3660;DHT22;1846;51.482;7.224;2023-04-26T18:52:38;10.20;5.00
3660;DHT22;1846;51.482;7.224;2023-04-26T18:55:07;10.20;5.00
3660;DHT22;1846;51.482;7.224;2023-04-26T18:57:34;10.20;5.10
3660;DHT22;1846;51.482;7.224;2023-04-26T19:00:00;10.10;4.30
3660;DHT22;1846;51.482;7.224;2023-04-26T19:02:29;10.10;5.00
3660;DHT22;1846;51.482;7.224;2023-04-26T19:04:55;10.10;5.10
3660;DHT22;1846;51.482;7.224;2023-04-26T19:07:23;10.00;5.00
3660;DHT22;1846;51.482;7.224;2023-04-26T19:09:55;10.20;5.30
3660;DHT22;1846;51.482;7.224;2023-04-26T19:12:26;10.20;6.20
3660;DHT22;1846;51.482;7.224;2023-04-26T19:14:53;10.10;6.70
3660;DHT22;1846;51.482;7.224;2023-04-26T19:17:20;10.00;7.40
3660;DHT22;1846;51.482;7.224;2023-04-26T19:19:48;9.90;8.20
3660;DHT22;1846;51.482;7.224;2023-04-26T19:22:17;9.90;9.20
3660;DHT22;1846;51.482;7.224;2023-04-26T19:24:47;9.90;10.10
3660;DHT22;1846;51.482;7.224;2023-04-26T19:27:17;9.90;17.40
3660;DHT22;1846;51.482;7.224;2023-04-26T19:29:45;9.90;10.60
3660;DHT22;1846;51.482;7.224;2023-04-26T19:32:12;9.90;11.20
3660;DHT22;1846;51.482;7.224;2023-04-26T19:34:39;9.80;12.70
3660;DHT22;1846;51.482;7.224;2023-04-26T19:37:06;9.60;14.00
3660;DHT22;1846;51.482;7.224;2023-04-26T19:39:32;9.60;15.90
3660;DHT22;1846;51.482;7.224;2023-04-26T19:41:59;9.60;16.50
3660;DHT22;1846;51.482;7.224;2023-04-26T19:44:27;9.60;18.40
3660;DHT22;1846;51.482;7.224;2023-04-26T19:46:55;9.60;19.60
3660;DHT22;1846;51.482;7.224;2023-04-26T19:49:22;9.50;20.70
3660;DHT22;1846;51.482;7.224;2023-04-26T19:51:49;9.50;22.70
3660;DHT22;1846;51.482;7.224;2023-04-26T19:54:16;9.50;25.20